Česky Dansk Deutsch English Español Suomi Français Magyar Italiano Nederlands norsk Polski Português svenska Türkçe

 

Het Weer

Polyarny (Rusland)

15:00, 22 juli 2016 (GMT)

 
WE
 
Home            
Polyarny Mirny Tiksi Bodajbo Jakutsk Kirensk Bratsk / Irkutsk Cul'Man Enisejsk Nizhneudinsk Ust'Ordynskij Horinsk Chita Irkutsk Ulan-Ude Abakan Nizhnevartovsk Kemerovo Ekimchan Surgut Novokuznetsk Novosibirsk Magadan

Om een weerknop op uw website of weblog te plaatsen, copieer onderstaande code en plak die in uw pagina. In het eerste vakje staat HTML-code, in het tweede vakje UBB-code.


Add to Google

Details

Wind speed:1 bf, 1.9 kn, 1 m/s, 2.2 miles/h, 3.6 km/h
Wind direction:WSW, 240°
Visibility:Greater than 10000 m, 10 km, 32800 ft, 6.2 miles
Clouds:Durchbrochene Bewölkung at 1600 ft, 488 m
Geschlossene Wolkendecke at 10000 ft, 3048 m
Het Weer:light rain
Temperature:10°C, 50°F
Dew-point:8°C, 46°F
Atmospheric pressure:1011 hPa, 758.3 mmHg, 29.85 inHg, 0.998 atm
Relative humidity:87.4 %
METAR:UERP 221500Z 24001MPS 9999 -RA BKN016 OVC100 10/08 Q1011 R35/210260 NOSIG RMK QFE714

Snelkoppelingen

Actuele weersinformatie van de hele wereld. Voeg locaties toe met het plus (+) symbool. Deze snelkoppelingen kunnen worden toegevoegd aan Google.

Lid van de Technetium groep

website free tracking
StatCounter NetStat W3C Validator

23-02-2017 07:30:27
astro.technetium.be money.technetium.be phote.technetium.be tafeltennistafel.technetium.be www.ligfiets.net